North Kingstown, RI (02852)

11:49 PM EDT on September 27, 2016 (GMT -0400)
Stone Gate | | Change Station

Elev 110 ft 41.57 °N, 71.47 °W | Updated 4 seconds ago

Scattered Clouds
Scattered Clouds
58.5 °F
Feels Like 58.5 °F
N
0.0
Wind Variable Wind from ESE
Gusts 0.0 mph

Today
High -- | Low -- °F
--% Chance of Precip.
Yesterday
High -- | Low -- °F
Precip. -- in
Pressure 30.01 in
Visibility 3.0 miles
Clouds Scattered Clouds 6500 ft
Dew Point 58 °F
Humidity 98%
Rainfall 0.43 in
Snow Depth Not available.
6:38 AM 6:33 PM
Waning Crescent, 8% visible
SPECI KPVD 280322Z 23003KT 3SM BR SCT065 15/14 A3001 RMK AO2 T01500144
Pressure 30.01 in
Visibility 3.0 miles
Clouds Scattered Clouds 6500 ft
Dew Point 58 °F
Humidity 98%
Rainfall 0.43 in
Snow Depth Not available.
6:38 AM 6:33 PM
Waning Crescent, 8% visible
SPECI KPVD 280322Z 23003KT 3SM BR SCT065 15/14 A3001 RMK AO2 T01500144

10-Day Weather Forecast

Almanac

Astronomy

Sep. 27, 2016 Rise Set
Actual Time
Civil Twilight
Nautical Twilight
Astronomical Twilight
Moon
Length of Visible Light
Length of Day
Tomorrow will be .
, % of the Moon is Illuminated

Today's Extremes

State Highs State Lows

Community

WunderPhotos

Upload Photos

1,942,203 photos uploaded!

WunderBlog® & News

Nearby

Air Quality

  Air Quality AQ Index Pollutant
Not available.

Snow Depth

Station Depth Elevation

Earthquake Activity

City Distance Mag. Time & Date
Minimum magnitude displayed is 2.5.

Coastal Water Temperatures

Place Temperature

Stations

Nearby Weather Stations

Station Location Temp. Windchill Dew Point Humidity Wind Precip. Elev Updated Type
                   

Watches & Warnings

There are currently no watches in effect.